Wilson Gaeta — 8PTS — position and weather

sailwx.info

Track history (hours):
 
Tides and Currents Weather Stations Pressure Air Temp Water Temp Dewpoint Dewpoint Depression Visibility Wind Speed Wind Dir Waves Ship Positions

Wilson Gaeta

Last reported at 2014-Oct-14 05:05 UTC. Time now 2014-Oct-21 11:56 UTC.
Position N 62°27' W 006°52'.

Length 88 m; draft 3.8 m.

Type: Cargo ship. MMSI: 314237000.

Date/timePositionNaut miles runAvg speedWind from/ knotsBaromVisibWave heightAir tempDewpointWater temp
2014-Oct-14 05:05N 62°27' W 006°52'5 9.5
2014-Oct-14 04:31N 62°28' W 007°03'411 9.3
2014-Oct-12 08:09N 63°28' W 021°59'6 9.5
2014-Oct-12 07:33N 63°31' W 022°10'10 9.5
2014-Oct-12 06:33N 63°35' W 022°28'34 8.2
2014-Oct-12 02:26N 64°07' W 022°55'8 9.1
2014-Oct-12 01:33N 64°10' W 022°37'10 9.8
2014-Oct-12 00:33N 64°11' W 022°15'1010.4
2014-Oct-11 23:33N 64°17' W 021°56'6 5.6
2014-Oct-11 22:31N 64°21' W 021°47'0 0.0
2014-Oct-11 21:28N 64°21' W 021°47'0 0.0
2014-Oct-11 20:31N 64°21' W 021°47'0 0.0
2014-Oct-11 19:31N 64°21' W 021°47'0 0.0
2014-Oct-11 18:31N 64°21' W 021°47'0 0.0
2014-Oct-11 17:31N 64°21' W 021°47'0 0.0
2014-Oct-11 16:28N 64°21' W 021°47'0 0.0
2014-Oct-11 15:31N 64°21' W 021°47'0 0.0
2014-Oct-11 14:31N 64°21' W 021°47'0 0.0
2014-Oct-11 13:31N 64°21' W 021°47'0 0.0
2014-Oct-11 12:31N 64°21' W 021°47'0 0.2
2014-Oct-11 11:33N 64°21' W 021°47'8 7.6
2014-Oct-11 10:33N 64°16' W 021°59'6 5.8
2014-Oct-11 09:33N 64°11' W 022°04'7 7.0
2014-Oct-11 08:33N 64°09' W 022°20'7 7.3
2014-Oct-11 07:33N 64°08' W 022°36'  
2014-Oct-07 04:30N 59°14' W 004°25'8 8.3
2014-Oct-07 03:33N 59°10' W 004°12'9 8.8
2014-Oct-07 02:33N 59°04' W 003°60'9 9.4
2014-Oct-07 01:33N 58°58' W 003°46'1010.2
2014-Oct-07 00:33N 58°51' W 003°32'1312.1
2014-Oct-06 23:31N 58°44' W 003°12'1111.1
2014-Oct-06 22:33N 58°37' W 002°55'5 5.0
2014-Oct-06 21:33N 58°33' W 002°49'50 8.2
2014-Oct-06 15:24N 57°52' W 001°55'8 9.7
2014-Oct-06 14:34N 57°45' W 001°46'10 9.4
2014-Oct-06 13:33N 57°37' W 001°36'356 8.5
2014-Oct-04 19:26N 52°38' E 004°02'6 7.0
2014-Oct-04 18:34N 52°34' E 004°10'108107.3
2014-Oct-04 17:33N 52°30' E 001°13'122122.2
2014-Oct-04 16:33N 52°28' E 004°33'4 4.3
2014-Oct-04 15:34N 52°28' E 004°40'5 5.1
2014-Oct-04 14:31N 52°24' E 004°47'0 0.0
2014-Oct-04 13:31N 52°24' E 004°47'0 0.0
2014-Oct-04 12:31N 52°24' E 004°47'0 0.0
2014-Oct-04 11:31N 52°24' E 004°47'0 0.0
2014-Oct-04 10:31N 52°24' E 004°47'0 0.0
2014-Oct-04 09:31N 52°24' E 004°47'0 0.0
2014-Oct-04 08:31N 52°24' E 004°47'0 0.0
2014-Oct-04 07:31N 52°24' E 004°47'0 0.1
2014-Oct-04 06:33N 52°24' E 004°47'7 7.0
2014-Oct-04 05:33N 52°28' E 004°37'  
Track history (hours):
 
Tides and Currents Weather Stations Pressure Air Temp Water Temp Dewpoint Dewpoint Depression Visibility Wind Speed Wind Dir Waves Ship Positions

Wilson Gaeta

Last reported at 2014-Oct-14 05:05 UTC. Time now 2014-Oct-21 11:56 UTC.
Position N 62°27' W 006°52'.

Length 88 m; draft 3.8 m.

Type: Cargo ship. MMSI: 314237000.

Date/timePositionNaut miles runAvg speedWind from/ knotsBaromVisibWave heightAir tempDewpointWater temp
2014-Oct-14 05:05N 62°27' W 006°52'5 9.5
2014-Oct-14 04:31N 62°28' W 007°03'411 9.3
2014-Oct-12 08:09N 63°28' W 021°59'6 9.5
2014-Oct-12 07:33N 63°31' W 022°10'10 9.5
2014-Oct-12 06:33N 63°35' W 022°28'34 8.2
2014-Oct-12 02:26N 64°07' W 022°55'8 9.1
2014-Oct-12 01:33N 64°10' W 022°37'10 9.8
2014-Oct-12 00:33N 64°11' W 022°15'1010.4
2014-Oct-11 23:33N 64°17' W 021°56'6 5.6
2014-Oct-11 22:31N 64°21' W 021°47'0 0.0
2014-Oct-11 21:28N 64°21' W 021°47'0 0.0
2014-Oct-11 20:31N 64°21' W 021°47'0 0.0
2014-Oct-11 19:31N 64°21' W 021°47'0 0.0
2014-Oct-11 18:31N 64°21' W 021°47'0 0.0
2014-Oct-11 17:31N 64°21' W 021°47'0 0.0
2014-Oct-11 16:28N 64°21' W 021°47'0 0.0
2014-Oct-11 15:31N 64°21' W 021°47'0 0.0
2014-Oct-11 14:31N 64°21' W 021°47'0 0.0
2014-Oct-11 13:31N 64°21' W 021°47'0 0.0
2014-Oct-11 12:31N 64°21' W 021°47'0 0.2
2014-Oct-11 11:33N 64°21' W 021°47'8 7.6
2014-Oct-11 10:33N 64°16' W 021°59'6 5.8
2014-Oct-11 09:33N 64°11' W 022°04'7 7.0
2014-Oct-11 08:33N 64°09' W 022°20'7 7.3
2014-Oct-11 07:33N 64°08' W 022°36'  
2014-Oct-07 04:30N 59°14' W 004°25'8 8.3
2014-Oct-07 03:33N 59°10' W 004°12'9 8.8
2014-Oct-07 02:33N 59°04' W 003°60'9 9.4
2014-Oct-07 01:33N 58°58' W 003°46'1010.2
2014-Oct-07 00:33N 58°51' W 003°32'1312.1
2014-Oct-06 23:31N 58°44' W 003°12'1111.1
2014-Oct-06 22:33N 58°37' W 002°55'5 5.0
2014-Oct-06 21:33N 58°33' W 002°49'50 8.2
2014-Oct-06 15:24N 57°52' W 001°55'8 9.7
2014-Oct-06 14:34N 57°45' W 001°46'10 9.4
2014-Oct-06 13:33N 57°37' W 001°36'356 8.5
2014-Oct-04 19:26N 52°38' E 004°02'6 7.0
2014-Oct-04 18:34N 52°34' E 004°10'108107.3
2014-Oct-04 17:33N 52°30' E 001°13'122122.2
2014-Oct-04 16:33N 52°28' E 004°33'4 4.3
2014-Oct-04 15:34N 52°28' E 004°40'5 5.1
2014-Oct-04 14:31N 52°24' E 004°47'0 0.0
2014-Oct-04 13:31N 52°24' E 004°47'0 0.0
2014-Oct-04 12:31N 52°24' E 004°47'0 0.0
2014-Oct-04 11:31N 52°24' E 004°47'0 0.0
2014-Oct-04 10:31N 52°24' E 004°47'0 0.0
2014-Oct-04 09:31N 52°24' E 004°47'0 0.0
2014-Oct-04 08:31N 52°24' E 004°47'0 0.0
2014-Oct-04 07:31N 52°24' E 004°47'0 0.1
2014-Oct-04 06:33N 52°24' E 004°47'7 7.0
2014-Oct-04 05:33N 52°28' E 004°37'  

Dump ship's entire track history